sensor_id;sensor_type;location;lat;lon;timestamp;temperature;humidity
9323;DHT22;4700;48.822;9.270;2023-04-12T00:01:14;9.20;1.00
9323;DHT22;4700;48.822;9.270;2023-04-12T00:04:01;9.20;1.00
9323;DHT22;4700;48.822;9.270;2023-04-12T00:06:48;9.40;1.00
9323;DHT22;4700;48.822;9.270;2023-04-12T00:09:36;9.50;1.00
9323;DHT22;4700;48.822;9.270;2023-04-12T00:12:22;9.50;1.00
9323;DHT22;4700;48.822;9.270;2023-04-12T00:15:09;9.50;1.00
9323;DHT22;4700;48.822;9.270;2023-04-12T00:17:54;9.60;1.00
9323;DHT22;4700;48.822;9.270;2023-04-12T00:20:43;9.60;1.00
9323;DHT22;4700;48.822;9.270;2023-04-12T00:23:29;9.70;1.00
9323;DHT22;4700;48.822;9.270;2023-04-12T00:26:17;9.70;1.00
9323;DHT22;4700;48.822;9.270;2023-04-12T00:29:04;9.70;1.00
9323;DHT22;4700;48.822;9.270;2023-04-12T00:31:50;9.60;1.00
9323;DHT22;4700;48.822;9.270;2023-04-12T00:34:35;9.60;1.00
9323;DHT22;4700;48.822;9.270;2023-04-12T00:40:10;9.60;1.00
9323;DHT22;4700;48.822;9.270;2023-04-12T00:42:55;9.50;1.00
9323;DHT22;4700;48.822;9.270;2023-04-12T00:45:42;9.50;1.00
9323;DHT22;4700;48.822;9.270;2023-04-12T00:48:28;9.40;1.00
9323;DHT22;4700;48.822;9.270;2023-04-12T00:51:13;9.40;1.00
9323;DHT22;4700;48.822;9.270;2023-04-12T00:54:04;9.40;1.00
9323;DHT22;4700;48.822;9.270;2023-04-12T00:56:51;9.40;1.00
9323;DHT22;4700;48.822;9.270;2023-04-12T01:02:22;9.20;1.00
9323;DHT22;4700;48.822;9.270;2023-04-12T01:05:08;9.20;1.00
9323;DHT22;4700;48.822;9.270;2023-04-12T01:08:07;9.20;1.00
9323;DHT22;4700;48.822;9.270;2023-04-12T01:11:07;9.10;1.00
9323;DHT22;4700;48.822;9.270;2023-04-12T01:13:58;9.00;1.00
9323;DHT22;4700;48.822;9.270;2023-04-12T01:16:48;9.00;1.00
9323;DHT22;4700;48.822;9.270;2023-04-12T01:19:49;8.90;1.00
9323;DHT22;4700;48.822;9.270;2023-04-12T01:26:11;8.80;1.00
9323;DHT22;4700;48.822;9.270;2023-04-12T01:29:07;8.80;1.00
9323;DHT22;4700;48.822;9.270;2023-04-12T01:31:57;8.70;1.00
9323;DHT22;4700;48.822;9.270;2023-04-12T01:34:44;8.70;1.00
9323;DHT22;4700;48.822;9.270;2023-04-12T01:37:30;8.80;1.00
9323;DHT22;4700;48.822;9.270;2023-04-12T01:40:17;8.70;1.00
9323;DHT22;4700;48.822;9.270;2023-04-12T01:43:07;8.70;1.00
9323;DHT22;4700;48.822;9.270;2023-04-12T01:45:54;8.70;1.00
9323;DHT22;4700;48.822;9.270;2023-04-12T01:48:44;8.60;1.00
9323;DHT22;4700;48.822;9.270;2023-04-12T01:51:38;8.60;1.00
9323;DHT22;4700;48.822;9.270;2023-04-12T01:54:29;8.50;1.00
9323;DHT22;4700;48.822;9.270;2023-04-12T01:57:16;8.50;1.00
9323;DHT22;4700;48.822;9.270;2023-04-12T02:00:03;8.40;1.00
9323;DHT22;4700;48.822;9.270;2023-04-12T02:02:52;8.30;1.00
9323;DHT22;4700;48.822;9.270;2023-04-12T02:05:38;8.30;1.00
9323;DHT22;4700;48.822;9.270;2023-04-12T02:08:26;8.20;1.00
9323;DHT22;4700;48.822;9.270;2023-04-12T02:11:13;8.20;1.00
9323;DHT22;4700;48.822;9.270;2023-04-12T02:13:59;8.10;1.00
9323;DHT22;4700;48.822;9.270;2023-04-12T02:16:45;8.00;1.00
9323;DHT22;4700;48.822;9.270;2023-04-12T02:19:33;7.90;1.00
9323;DHT22;4700;48.822;9.270;2023-04-12T02:22:19;7.90;1.00
9323;DHT22;4700;48.822;9.270;2023-04-12T02:25:05;7.80;1.00
9323;DHT22;4700;48.822;9.270;2023-04-12T02:27:51;7.60;1.00
9323;DHT22;4700;48.822;9.270;2023-04-12T02:30:37;7.40;1.00
9323;DHT22;4700;48.822;9.270;2023-04-12T02:33:25;7.40;1.00
9323;DHT22;4700;48.822;9.270;2023-04-12T02:36:12;10.10;1.00
9323;DHT22;4700;48.822;9.270;2023-04-12T02:39:01;7.30;1.00
9323;DHT22;4700;48.822;9.270;2023-04-12T02:41:47;7.30;1.00
9323;DHT22;4700;48.822;9.270;2023-04-12T02:44:32;7.20;1.00
9323;DHT22;4700;48.822;9.270;2023-04-12T02:47:18;7.00;1.00
9323;DHT22;4700;48.822;9.270;2023-04-12T02:50:05;7.20;1.00
9323;DHT22;4700;48.822;9.270;2023-04-12T02:52:52;7.20;1.00
9323;DHT22;4700;48.822;9.270;2023-04-12T02:55:38;7.20;1.00
9323;DHT22;4700;48.822;9.270;2023-04-12T02:58:16;7.30;1.00
9323;DHT22;4700;48.822;9.270;2023-04-12T03:01:02;7.20;1.00
9323;DHT22;4700;48.822;9.270;2023-04-12T03:03:50;7.20;1.00
9323;DHT22;4700;48.822;9.270;2023-04-12T03:06:36;7.20;1.00
9323;DHT22;4700;48.822;9.270;2023-04-12T03:09:27;7.20;1.00
9323;DHT22;4700;48.822;9.270;2023-04-12T03:12:21;7.20;1.00
9323;DHT22;4700;48.822;9.270;2023-04-12T03:15:08;7.20;1.00
9323;DHT22;4700;48.822;9.270;2023-04-12T03:17:54;7.20;1.00
9323;DHT22;4700;48.822;9.270;2023-04-12T03:20:40;7.10;1.00
9323;DHT22;4700;48.822;9.270;2023-04-12T03:23:27;7.10;1.00
9323;DHT22;4700;48.822;9.270;2023-04-12T03:29:03;6.90;1.00
9323;DHT22;4700;48.822;9.270;2023-04-12T03:31:52;6.90;1.00
9323;DHT22;4700;48.822;9.270;2023-04-12T03:37:12;6.80;1.00
9323;DHT22;4700;48.822;9.270;2023-04-12T03:42:50;6.80;1.00
9323;DHT22;4700;48.822;9.270;2023-04-12T03:45:37;6.80;1.00
9323;DHT22;4700;48.822;9.270;2023-04-12T03:48:24;6.80;1.00
9323;DHT22;4700;48.822;9.270;2023-04-12T03:51:21;6.70;1.00
9323;DHT22;4700;48.822;9.270;2023-04-12T03:54:10;6.80;1.00
9323;DHT22;4700;48.822;9.270;2023-04-12T03:56:56;7.00;1.00
9323;DHT22;4700;48.822;9.270;2023-04-12T04:02:29;7.00;1.00
9323;DHT22;4700;48.822;9.270;2023-04-12T04:05:17;7.00;1.00
9323;DHT22;4700;48.822;9.270;2023-04-12T04:08:03;7.00;1.00
9323;DHT22;4700;48.822;9.270;2023-04-12T04:10:50;7.10;1.00
9323;DHT22;4700;48.822;9.270;2023-04-12T04:13:36;7.10;1.00
9323;DHT22;4700;48.822;9.270;2023-04-12T04:16:24;7.20;1.00
9323;DHT22;4700;48.822;9.270;2023-04-12T04:19:11;7.20;1.00
9323;DHT22;4700;48.822;9.270;2023-04-12T04:21:57;7.20;1.00
9323;DHT22;4700;48.822;9.270;2023-04-12T04:24:45;7.10;1.00
9323;DHT22;4700;48.822;9.270;2023-04-12T04:27:31;7.20;1.00
9323;DHT22;4700;48.822;9.270;2023-04-12T04:30:17;7.10;1.00
9323;DHT22;4700;48.822;9.270;2023-04-12T04:33:07;7.00;1.00
9323;DHT22;4700;48.822;9.270;2023-04-12T04:35:55;7.00;1.00
9323;DHT22;4700;48.822;9.270;2023-04-12T04:38:41;7.00;1.00
9323;DHT22;4700;48.822;9.270;2023-04-12T04:46:33;6.80;1.00
9323;DHT22;4700;48.822;9.270;2023-04-12T05:10:08;6.90;1.00
9323;DHT22;4700;48.822;9.270;2023-04-12T05:12:54;6.90;1.00
9323;DHT22;4700;48.822;9.270;2023-04-12T05:49:20;7.10;1.00
9323;DHT22;4700;48.822;9.270;2023-04-12T06:07:59;7.20;1.00
9323;DHT22;4700;48.822;9.270;2023-04-12T06:16:01;7.20;1.00
9323;DHT22;4700;48.822;9.270;2023-04-12T07:21:04;7.90;1.00
9323;DHT22;4700;48.822;9.270;2023-04-12T07:23:50;7.90;1.00
9323;DHT22;4700;48.822;9.270;2023-04-12T07:29:09;8.20;1.00
9323;DHT22;4700;48.822;9.270;2023-04-12T07:31:55;8.30;1.00
9323;DHT22;4700;48.822;9.270;2023-04-12T07:34:41;8.20;1.00
9323;DHT22;4700;48.822;9.270;2023-04-12T07:37:28;8.20;1.00
9323;DHT22;4700;48.822;9.270;2023-04-12T07:40:16;8.10;1.00
9323;DHT22;4700;48.822;9.270;2023-04-12T07:43:02;8.30;1.00
9323;DHT22;4700;48.822;9.270;2023-04-12T07:45:48;8.60;1.00
9323;DHT22;4700;48.822;9.270;2023-04-12T07:48:34;8.60;1.00
9323;DHT22;4700;48.822;9.270;2023-04-12T07:51:20;8.70;1.00
9323;DHT22;4700;48.822;9.270;2023-04-12T07:54:08;8.80;1.00
9323;DHT22;4700;48.822;9.270;2023-04-12T07:57:01;8.90;1.00
9323;DHT22;4700;48.822;9.270;2023-04-12T07:59:48;9.00;1.00
9323;DHT22;4700;48.822;9.270;2023-04-12T08:02:35;9.20;1.00
9323;DHT22;4700;48.822;9.270;2023-04-12T08:05:21;9.10;1.00
9323;DHT22;4700;48.822;9.270;2023-04-12T08:08:08;8.90;1.00
9323;DHT22;4700;48.822;9.270;2023-04-12T08:10:56;8.90;1.00
9323;DHT22;4700;48.822;9.270;2023-04-12T08:13:41;9.10;1.00
9323;DHT22;4700;48.822;9.270;2023-04-12T08:16:28;9.20;1.00
9323;DHT22;4700;48.822;9.270;2023-04-12T08:19:14;9.30;1.00
9323;DHT22;4700;48.822;9.270;2023-04-12T08:22:00;9.40;1.00
9323;DHT22;4700;48.822;9.270;2023-04-12T08:24:46;9.50;1.00
9323;DHT22;4700;48.822;9.270;2023-04-12T08:30:38;9.40;1.00
9323;DHT22;4700;48.822;9.270;2023-04-12T08:33:24;9.40;1.00
9323;DHT22;4700;48.822;9.270;2023-04-12T08:36:11;9.50;1.00
9323;DHT22;4700;48.822;9.270;2023-04-12T08:38:58;9.20;1.00
9323;DHT22;4700;48.822;9.270;2023-04-12T08:41:44;9.00;1.00
9323;DHT22;4700;48.822;9.270;2023-04-12T08:44:36;9.00;1.00
9323;DHT22;4700;48.822;9.270;2023-04-12T08:47:22;8.80;1.00
9323;DHT22;4700;48.822;9.270;2023-04-12T08:50:09;9.00;1.00
9323;DHT22;4700;48.822;9.270;2023-04-12T08:52:58;9.20;1.00
9323;DHT22;4700;48.822;9.270;2023-04-12T08:55:44;9.40;1.00
9323;DHT22;4700;48.822;9.270;2023-04-12T08:58:30;9.30;1.00
9323;DHT22;4700;48.822;9.270;2023-04-12T09:01:18;9.50;1.00
9323;DHT22;4700;48.822;9.270;2023-04-12T09:04:05;9.70;1.00
9323;DHT22;4700;48.822;9.270;2023-04-12T09:06:51;9.60;1.00
9323;DHT22;4700;48.822;9.270;2023-04-12T09:09:41;9.80;1.00
9323;DHT22;4700;48.822;9.270;2023-04-12T09:12:27;9.70;1.00
9323;DHT22;4700;48.822;9.270;2023-04-12T09:15:14;9.80;1.00
9323;DHT22;4700;48.822;9.270;2023-04-12T09:18:08;9.80;1.00
9323;DHT22;4700;48.822;9.270;2023-04-12T09:21:05;10.10;1.00
9323;DHT22;4700;48.822;9.270;2023-04-12T09:24:02;10.30;1.00
9323;DHT22;4700;48.822;9.270;2023-04-12T09:26:52;10.40;1.00
9323;DHT22;4700;48.822;9.270;2023-04-12T09:29:31;10.40;1.00
9323;DHT22;4700;48.822;9.270;2023-04-12T09:32:25;10.50;1.00
9323;DHT22;4700;48.822;9.270;2023-04-12T09:35:13;10.70;1.00
9323;DHT22;4700;48.822;9.270;2023-04-12T09:38:06;10.90;1.00
9323;DHT22;4700;48.822;9.270;2023-04-12T09:40:51;11.10;1.00
9323;DHT22;4700;48.822;9.270;2023-04-12T09:43:38;11.20;1.00
9323;DHT22;4700;48.822;9.270;2023-04-12T09:46:24;11.20;1.00
9323;DHT22;4700;48.822;9.270;2023-04-12T09:49:11;11.30;1.00
9323;DHT22;4700;48.822;9.270;2023-04-12T09:51:58;11.30;1.00
9323;DHT22;4700;48.822;9.270;2023-04-12T09:54:45;11.30;1.00
9323;DHT22;4700;48.822;9.270;2023-04-12T09:57:32;11.30;1.00
9323;DHT22;4700;48.822;9.270;2023-04-12T10:00:20;11.20;1.00
9323;DHT22;4700;48.822;9.270;2023-04-12T10:03:06;11.30;1.00
9323;DHT22;4700;48.822;9.270;2023-04-12T10:05:53;11.30;1.00
9323;DHT22;4700;48.822;9.270;2023-04-12T10:08:41;11.50;1.00
9323;DHT22;4700;48.822;9.270;2023-04-12T10:11:27;11.60;1.00
9323;DHT22;4700;48.822;9.270;2023-04-12T10:14:15;11.60;1.00
9323;DHT22;4700;48.822;9.270;2023-04-12T10:17:03;11.80;1.00
9323;DHT22;4700;48.822;9.270;2023-04-12T10:19:50;11.90;1.00
9323;DHT22;4700;48.822;9.270;2023-04-12T10:22:38;12.20;1.00
9323;DHT22;4700;48.822;9.270;2023-04-12T10:25:27;12.20;1.00
9323;DHT22;4700;48.822;9.270;2023-04-12T10:28:19;12.20;1.00
9323;DHT22;4700;48.822;9.270;2023-04-12T10:31:27;12.30;1.00
9323;DHT22;4700;48.822;9.270;2023-04-12T10:34:14;12.40;1.00
9323;DHT22;4700;48.822;9.270;2023-04-12T10:37:00;12.50;1.00
9323;DHT22;4700;48.822;9.270;2023-04-12T10:39:51;12.70;1.00
9323;DHT22;4700;48.822;9.270;2023-04-12T10:42:39;12.80;1.00
9323;DHT22;4700;48.822;9.270;2023-04-12T10:45:35;12.80;1.00
9323;DHT22;4700;48.822;9.270;2023-04-12T10:48:29;13.00;1.00
9323;DHT22;4700;48.822;9.270;2023-04-12T10:51:17;13.20;1.00
9323;DHT22;4700;48.822;9.270;2023-04-12T10:54:31;13.40;1.00
9323;DHT22;4700;48.822;9.270;2023-04-12T10:57:45;13.70;1.00
9323;DHT22;4700;48.822;9.270;2023-04-12T11:04:19;13.80;1.00
9323;DHT22;4700;48.822;9.270;2023-04-12T11:07:06;10.30;1.00
9323;DHT22;4700;48.822;9.270;2023-04-12T11:09:56;13.60;1.00
9323;DHT22;4700;48.822;9.270;2023-04-12T11:12:48;13.60;1.00
9323;DHT22;4700;48.822;9.270;2023-04-12T11:15:37;14.00;1.00
9323;DHT22;4700;48.822;9.270;2023-04-12T11:18:26;14.10;1.00
9323;DHT22;4700;48.822;9.270;2023-04-12T11:21:12;14.70;1.00
9323;DHT22;4700;48.822;9.270;2023-04-12T11:23:58;14.70;1.00
9323;DHT22;4700;48.822;9.270;2023-04-12T11:26:46;14.70;1.00
9323;DHT22;4700;48.822;9.270;2023-04-12T11:32:21;15.10;1.00
9323;DHT22;4700;48.822;9.270;2023-04-12T11:35:08;15.00;1.00
9323;DHT22;4700;48.822;9.270;2023-04-12T11:37:56;14.80;1.00
9323;DHT22;4700;48.822;9.270;2023-04-12T11:40:42;14.80;1.00
9323;DHT22;4700;48.822;9.270;2023-04-12T11:43:31;14.80;1.00
9323;DHT22;4700;48.822;9.270;2023-04-12T11:46:19;14.50;1.00
9323;DHT22;4700;48.822;9.270;2023-04-12T11:49:04;14.50;1.00
9323;DHT22;4700;48.822;9.270;2023-04-12T11:52:00;14.40;1.00
9323;DHT22;4700;48.822;9.270;2023-04-12T11:54:48;14.40;1.00
9323;DHT22;4700;48.822;9.270;2023-04-12T11:57:34;14.30;1.00
9323;DHT22;4700;48.822;9.270;2023-04-12T12:00:21;14.50;1.00
9323;DHT22;4700;48.822;9.270;2023-04-12T12:03:13;14.80;1.00
9323;DHT22;4700;48.822;9.270;2023-04-12T12:05:59;15.10;1.00
9323;DHT22;4700;48.822;9.270;2023-04-12T12:08:44;15.30;1.00
9323;DHT22;4700;48.822;9.270;2023-04-12T12:11:30;15.40;1.00
9323;DHT22;4700;48.822;9.270;2023-04-12T12:14:18;15.40;1.00
9323;DHT22;4700;48.822;9.270;2023-04-12T12:17:09;15.50;1.00
9323;DHT22;4700;48.822;9.270;2023-04-12T12:19:58;15.50;1.00
9323;DHT22;4700;48.822;9.270;2023-04-12T12:22:45;15.50;1.00
9323;DHT22;4700;48.822;9.270;2023-04-12T12:25:31;15.70;1.00
9323;DHT22;4700;48.822;9.270;2023-04-12T12:28:17;15.70;1.00
9323;DHT22;4700;48.822;9.270;2023-04-12T12:31:05;15.70;1.00
9323;DHT22;4700;48.822;9.270;2023-04-12T12:33:54;15.80;1.00
9323;DHT22;4700;48.822;9.270;2023-04-12T12:36:41;16.00;1.00
9323;DHT22;4700;48.822;9.270;2023-04-12T12:39:27;16.30;1.00
9323;DHT22;4700;48.822;9.270;2023-04-12T12:42:14;16.00;1.00
9323;DHT22;4700;48.822;9.270;2023-04-12T12:45:03;16.00;1.00
9323;DHT22;4700;48.822;9.270;2023-04-12T12:47:54;15.90;1.00
9323;DHT22;4700;48.822;9.270;2023-04-12T12:50:42;15.80;1.00
9323;DHT22;4700;48.822;9.270;2023-04-12T12:53:30;15.90;1.00
9323;DHT22;4700;48.822;9.270;2023-04-12T12:56:16;16.00;1.00
9323;DHT22;4700;48.822;9.270;2023-04-12T12:59:01;16.20;1.00
9323;DHT22;4700;48.822;9.270;2023-04-12T13:01:48;16.20;1.00
9323;DHT22;4700;48.822;9.270;2023-04-12T13:04:34;16.40;1.00
9323;DHT22;4700;48.822;9.270;2023-04-12T13:07:20;16.40;1.00
9323;DHT22;4700;48.822;9.270;2023-04-12T13:10:07;16.30;1.00
9323;DHT22;4700;48.822;9.270;2023-04-12T13:12:53;16.00;1.00
9323;DHT22;4700;48.822;9.270;2023-04-12T13:15:39;16.00;1.00
9323;DHT22;4700;48.822;9.270;2023-04-12T13:18:25;15.90;1.00
9323;DHT22;4700;48.822;9.270;2023-04-12T13:21:11;15.90;1.00
9323;DHT22;4700;48.822;9.270;2023-04-12T13:23:57;15.90;1.00
9323;DHT22;4700;48.822;9.270;2023-04-12T13:26:44;16.10;1.00
9323;DHT22;4700;48.822;9.270;2023-04-12T13:29:30;16.40;1.00
9323;DHT22;4700;48.822;9.270;2023-04-12T13:32:16;16.40;1.00
9323;DHT22;4700;48.822;9.270;2023-04-12T13:35:05;16.10;1.00
9323;DHT22;4700;48.822;9.270;2023-04-12T13:37:51;15.90;1.00
9323;DHT22;4700;48.822;9.270;2023-04-12T13:40:37;15.60;1.00
9323;DHT22;4700;48.822;9.270;2023-04-12T13:43:24;15.40;1.00
9323;DHT22;4700;48.822;9.270;2023-04-12T13:46:10;15.30;1.00
9323;DHT22;4700;48.822;9.270;2023-04-12T13:48:57;15.60;1.00
9323;DHT22;4700;48.822;9.270;2023-04-12T13:51:42;16.10;1.00
9323;DHT22;4700;48.822;9.270;2023-04-12T13:54:29;16.40;1.00
9323;DHT22;4700;48.822;9.270;2023-04-12T13:57:15;16.60;1.00
9323;DHT22;4700;48.822;9.270;2023-04-12T14:00:04;16.70;1.00
9323;DHT22;4700;48.822;9.270;2023-04-12T14:02:50;16.80;1.00
9323;DHT22;4700;48.822;9.270;2023-04-12T14:05:36;16.60;1.00
9323;DHT22;4700;48.822;9.270;2023-04-12T14:08:22;16.20;1.00
9323;DHT22;4700;48.822;9.270;2023-04-12T14:11:09;16.00;1.00
9323;DHT22;4700;48.822;9.270;2023-04-12T14:13:54;15.70;1.00
9323;DHT22;4700;48.822;9.270;2023-04-12T14:16:42;15.60;1.00
9323;DHT22;4700;48.822;9.270;2023-04-12T14:19:28;15.50;1.00
9323;DHT22;4700;48.822;9.270;2023-04-12T14:22:14;15.60;1.00
9323;DHT22;4700;48.822;9.270;2023-04-12T14:24:59;15.60;1.00
9323;DHT22;4700;48.822;9.270;2023-04-12T14:27:45;16.20;1.00
9323;DHT22;4700;48.822;9.270;2023-04-12T14:30:28;16.70;1.00
9323;DHT22;4700;48.822;9.270;2023-04-12T14:33:15;16.90;1.00
9323;DHT22;4700;48.822;9.270;2023-04-12T14:36:01;17.10;1.00
9323;DHT22;4700;48.822;9.270;2023-04-12T14:38:51;17.20;1.00
9323;DHT22;4700;48.822;9.270;2023-04-12T14:41:37;17.30;1.00
9323;DHT22;4700;48.822;9.270;2023-04-12T14:44:24;17.20;1.00
9323;DHT22;4700;48.822;9.270;2023-04-12T14:47:10;17.10;1.00
9323;DHT22;4700;48.822;9.270;2023-04-12T14:49:58;17.10;1.00
9323;DHT22;4700;48.822;9.270;2023-04-12T14:52:44;17.20;1.00
9323;DHT22;4700;48.822;9.270;2023-04-12T14:55:31;17.20;1.00
9323;DHT22;4700;48.822;9.270;2023-04-12T14:58:17;17.30;1.00
9323;DHT22;4700;48.822;9.270;2023-04-12T15:01:03;17.10;1.00
9323;DHT22;4700;48.822;9.270;2023-04-12T15:03:49;17.10;1.00
9323;DHT22;4700;48.822;9.270;2023-04-12T15:06:38;16.80;1.00
9323;DHT22;4700;48.822;9.270;2023-04-12T15:09:26;16.80;1.00
9323;DHT22;4700;48.822;9.270;2023-04-12T15:12:11;16.70;1.00
9323;DHT22;4700;48.822;9.270;2023-04-12T15:14:57;16.60;1.00
9323;DHT22;4700;48.822;9.270;2023-04-12T15:17:44;16.50;1.00
9323;DHT22;4700;48.822;9.270;2023-04-12T15:20:30;16.40;1.00
9323;DHT22;4700;48.822;9.270;2023-04-12T15:23:18;16.20;1.00
9323;DHT22;4700;48.822;9.270;2023-04-12T15:26:05;15.80;1.00
9323;DHT22;4700;48.822;9.270;2023-04-12T15:28:53;12.60;1.00
9323;DHT22;4700;48.822;9.270;2023-04-12T15:31:39;12.40;1.00
9323;DHT22;4700;48.822;9.270;2023-04-12T15:34:25;11.70;1.00
9323;DHT22;4700;48.822;9.270;2023-04-12T15:37:13;11.30;1.00
9323;DHT22;4700;48.822;9.270;2023-04-12T15:40:00;10.80;1.00
9323;DHT22;4700;48.822;9.270;2023-04-12T15:42:47;10.30;1.00
9323;DHT22;4700;48.822;9.270;2023-04-12T15:48:19;10.20;1.00
9323;DHT22;4700;48.822;9.270;2023-04-12T15:51:06;10.00;1.00
9323;DHT22;4700;48.822;9.270;2023-04-12T15:53:52;10.00;1.00
9323;DHT22;4700;48.822;9.270;2023-04-12T15:56:39;9.80;1.00
9323;DHT22;4700;48.822;9.270;2023-04-12T15:59:26;9.80;1.00
9323;DHT22;4700;48.822;9.270;2023-04-12T16:02:12;10.00;1.00
9323;DHT22;4700;48.822;9.270;2023-04-12T16:04:58;10.10;1.00
9323;DHT22;4700;48.822;9.270;2023-04-12T16:07:47;10.10;1.00
9323;DHT22;4700;48.822;9.270;2023-04-12T16:10:34;10.30;1.00
9323;DHT22;4700;48.822;9.270;2023-04-12T16:13:23;10.50;1.00
9323;DHT22;4700;48.822;9.270;2023-04-12T16:16:09;10.50;1.00
9323;DHT22;4700;48.822;9.270;2023-04-12T16:18:56;10.70;1.00
9323;DHT22;4700;48.822;9.270;2023-04-12T16:21:43;10.80;1.00
9323;DHT22;4700;48.822;9.270;2023-04-12T16:24:29;10.60;1.00
9323;DHT22;4700;48.822;9.270;2023-04-12T16:27:15;10.80;1.00
9323;DHT22;4700;48.822;9.270;2023-04-12T16:30:02;11.00;1.00
9323;DHT22;4700;48.822;9.270;2023-04-12T16:32:49;11.00;1.00
9323;DHT22;4700;48.822;9.270;2023-04-12T16:35:35;11.00;1.00
9323;DHT22;4700;48.822;9.270;2023-04-12T16:38:21;10.90;1.00
9323;DHT22;4700;48.822;9.270;2023-04-12T16:41:07;10.90;1.00
9323;DHT22;4700;48.822;9.270;2023-04-12T16:43:59;11.00;1.00
9323;DHT22;4700;48.822;9.270;2023-04-12T16:46:49;11.00;1.00
9323;DHT22;4700;48.822;9.270;2023-04-12T16:49:35;11.10;1.00
9323;DHT22;4700;48.822;9.270;2023-04-12T16:52:21;11.10;1.00
9323;DHT22;4700;48.822;9.270;2023-04-12T16:55:08;11.20;1.00
9323;DHT22;4700;48.822;9.270;2023-04-12T16:57:54;10.90;1.00
9323;DHT22;4700;48.822;9.270;2023-04-12T17:00:42;11.20;1.00
9323;DHT22;4700;48.822;9.270;2023-04-12T17:03:29;11.20;1.00
9323;DHT22;4700;48.822;9.270;2023-04-12T17:06:18;11.10;1.00
9323;DHT22;4700;48.822;9.270;2023-04-12T17:09:04;11.10;1.00
9323;DHT22;4700;48.822;9.270;2023-04-12T17:11:50;11.00;1.00
9323;DHT22;4700;48.822;9.270;2023-04-12T17:14:36;11.00;1.00
9323;DHT22;4700;48.822;9.270;2023-04-12T17:17:22;10.90;1.00
9323;DHT22;4700;48.822;9.270;2023-04-12T17:20:10;10.90;1.00
9323;DHT22;4700;48.822;9.270;2023-04-12T17:22:56;10.80;1.00
9323;DHT22;4700;48.822;9.270;2023-04-12T17:25:41;10.80;1.00
9323;DHT22;4700;48.822;9.270;2023-04-12T17:28:27;10.80;1.00
9323;DHT22;4700;48.822;9.270;2023-04-12T17:31:03;10.70;1.00
9323;DHT22;4700;48.822;9.270;2023-04-12T17:33:49;10.70;1.00
9323;DHT22;4700;48.822;9.270;2023-04-12T17:39:23;10.50;1.00
9323;DHT22;4700;48.822;9.270;2023-04-12T17:42:14;10.60;1.00
9323;DHT22;4700;48.822;9.270;2023-04-12T17:45:00;10.60;1.00
9323;DHT22;4700;48.822;9.270;2023-04-12T17:47:46;10.60;1.00
9323;DHT22;4700;48.822;9.270;2023-04-12T17:50:31;10.60;1.00
9323;DHT22;4700;48.822;9.270;2023-04-12T17:53:19;10.50;1.00
9323;DHT22;4700;48.822;9.270;2023-04-12T17:56:05;10.60;1.00
9323;DHT22;4700;48.822;9.270;2023-04-12T17:58:51;10.50;1.00
9323;DHT22;4700;48.822;9.270;2023-04-12T18:01:38;10.50;1.00
9323;DHT22;4700;48.822;9.270;2023-04-12T18:04:25;10.50;1.00
9323;DHT22;4700;48.822;9.270;2023-04-12T18:07:11;10.50;1.00
9323;DHT22;4700;48.822;9.270;2023-04-12T18:09:59;10.60;1.00
9323;DHT22;4700;48.822;9.270;2023-04-12T18:12:46;10.50;1.00
9323;DHT22;4700;48.822;9.270;2023-04-12T18:15:32;10.50;1.00
9323;DHT22;4700;48.822;9.270;2023-04-12T18:18:18;10.50;1.00
9323;DHT22;4700;48.822;9.270;2023-04-12T18:21:05;10.30;1.00
9323;DHT22;4700;48.822;9.270;2023-04-12T18:23:50;10.30;1.00
9323;DHT22;4700;48.822;9.270;2023-04-12T18:26:38;10.10;1.00
9323;DHT22;4700;48.822;9.270;2023-04-12T18:29:26;9.90;1.00
9323;DHT22;4700;48.822;9.270;2023-04-12T18:32:12;10.00;1.00
9323;DHT22;4700;48.822;9.270;2023-04-12T18:34:59;10.00;1.00
9323;DHT22;4700;48.822;9.270;2023-04-12T18:37:45;10.00;1.00
9323;DHT22;4700;48.822;9.270;2023-04-12T18:40:35;9.90;1.00
9323;DHT22;4700;48.822;9.270;2023-04-12T18:43:22;9.80;1.00
9323;DHT22;4700;48.822;9.270;2023-04-12T18:46:13;9.80;1.00
9323;DHT22;4700;48.822;9.270;2023-04-12T18:49:01;9.70;1.00
9323;DHT22;4700;48.822;9.270;2023-04-12T18:51:47;9.70;1.00
9323;DHT22;4700;48.822;9.270;2023-04-12T18:54:34;9.70;1.00
9323;DHT22;4700;48.822;9.270;2023-04-12T18:57:19;9.70;1.00
9323;DHT22;4700;48.822;9.270;2023-04-12T19:00:09;9.60;1.00
9323;DHT22;4700;48.822;9.270;2023-04-12T19:02:57;9.60;1.00
9323;DHT22;4700;48.822;9.270;2023-04-12T19:05:43;9.60;1.00
9323;DHT22;4700;48.822;9.270;2023-04-12T19:08:29;9.60;1.00
9323;DHT22;4700;48.822;9.270;2023-04-12T19:11:15;9.70;1.00
9323;DHT22;4700;48.822;9.270;2023-04-12T19:14:00;9.70;1.00
9323;DHT22;4700;48.822;9.270;2023-04-12T19:16:48;9.60;1.00
9323;DHT22;4700;48.822;9.270;2023-04-12T19:19:34;9.60;1.00
9323;DHT22;4700;48.822;9.270;2023-04-12T19:22:20;9.60;1.00
9323;DHT22;4700;48.822;9.270;2023-04-12T19:25:11;9.60;1.00
9323;DHT22;4700;48.822;9.270;2023-04-12T19:27:57;9.70;1.00
9323;DHT22;4700;48.822;9.270;2023-04-12T19:30:43;9.60;1.00
9323;DHT22;4700;48.822;9.270;2023-04-12T19:33:30;9.70;1.00
9323;DHT22;4700;48.822;9.270;2023-04-12T19:36:16;9.70;1.00
9323;DHT22;4700;48.822;9.270;2023-04-12T19:39:02;9.60;1.00
9323;DHT22;4700;48.822;9.270;2023-04-12T19:41:48;9.60;1.00
9323;DHT22;4700;48.822;9.270;2023-04-12T19:44:35;9.60;1.00
9323;DHT22;4700;48.822;9.270;2023-04-12T19:47:20;9.70;1.00
9323;DHT22;4700;48.822;9.270;2023-04-12T19:50:10;9.60;1.00
9323;DHT22;4700;48.822;9.270;2023-04-12T19:52:58;9.60;1.00
9323;DHT22;4700;48.822;9.270;2023-04-12T19:55:44;9.60;1.00
9323;DHT22;4700;48.822;9.270;2023-04-12T19:58:30;9.60;1.00
9323;DHT22;4700;48.822;9.270;2023-04-12T20:01:17;9.70;1.00
9323;DHT22;4700;48.822;9.270;2023-04-12T20:04:02;9.70;1.00
9323;DHT22;4700;48.822;9.270;2023-04-12T20:06:50;9.70;1.00
9323;DHT22;4700;48.822;9.270;2023-04-12T20:09:37;9.70;1.00
9323;DHT22;4700;48.822;9.270;2023-04-12T20:12:23;9.60;1.00
9323;DHT22;4700;48.822;9.270;2023-04-12T20:15:10;9.70;1.00
9323;DHT22;4700;48.822;9.270;2023-04-12T20:17:56;9.50;1.00
9323;DHT22;4700;48.822;9.270;2023-04-12T20:20:42;9.60;1.00
9323;DHT22;4700;48.822;9.270;2023-04-12T20:23:30;9.60;1.00
9323;DHT22;4700;48.822;9.270;2023-04-12T20:26:15;9.60;1.00
9323;DHT22;4700;48.822;9.270;2023-04-12T20:29:02;9.60;1.00
9323;DHT22;4700;48.822;9.270;2023-04-12T20:31:47;9.60;1.00
9323;DHT22;4700;48.822;9.270;2023-04-12T20:34:33;9.60;1.00
9323;DHT22;4700;48.822;9.270;2023-04-12T20:37:19;9.60;1.00
9323;DHT22;4700;48.822;9.270;2023-04-12T20:40:12;9.60;1.00
9323;DHT22;4700;48.822;9.270;2023-04-12T20:42:58;9.60;1.00
9323;DHT22;4700;48.822;9.270;2023-04-12T20:45:45;9.70;1.00
9323;DHT22;4700;48.822;9.270;2023-04-12T20:48:31;10.80;1.00
9323;DHT22;4700;48.822;9.270;2023-04-12T20:51:18;9.80;1.00
9323;DHT22;4700;48.822;9.270;2023-04-12T20:54:07;9.70;1.00
9323;DHT22;4700;48.822;9.270;2023-04-12T20:56:55;9.80;1.00
9323;DHT22;4700;48.822;9.270;2023-04-12T20:59:42;9.80;1.00
9323;DHT22;4700;48.822;9.270;2023-04-12T21:02:28;9.70;1.00
9323;DHT22;4700;48.822;9.270;2023-04-12T21:05:14;9.30;1.00
9323;DHT22;4700;48.822;9.270;2023-04-12T21:08:00;8.90;1.00
9323;DHT22;4700;48.822;9.270;2023-04-12T21:10:46;8.50;1.00
9323;DHT22;4700;48.822;9.270;2023-04-12T21:13:34;8.20;1.00
9323;DHT22;4700;48.822;9.270;2023-04-12T21:16:20;7.80;1.00
9323;DHT22;4700;48.822;9.270;2023-04-12T21:19:08;7.80;1.00
9323;DHT22;4700;48.822;9.270;2023-04-12T21:21:54;7.80;1.00
9323;DHT22;4700;48.822;9.270;2023-04-12T21:24:42;7.60;1.00
9323;DHT22;4700;48.822;9.270;2023-04-12T21:27:28;7.60;1.00
9323;DHT22;4700;48.822;9.270;2023-04-12T21:30:15;7.60;1.00
9323;DHT22;4700;48.822;9.270;2023-04-12T21:33:01;7.60;1.00
9323;DHT22;4700;48.822;9.270;2023-04-12T21:35:47;7.60;1.00
9323;DHT22;4700;48.822;9.270;2023-04-12T21:38:33;7.60;1.00
9323;DHT22;4700;48.822;9.270;2023-04-12T21:41:19;7.50;1.00